Williams, Arizona
Current Conditions -  °F | °C
As of 7:57 PM on Thursday 27 Nov 2014 (Local Time) from KFLG Reporting Station
Clear Clear  
Wind Chill: 39°   Ceiling: Unl
Heat Index: 39°   Visibility: 10mi
Dew Point: 16°   Wind: 0mph
Humidity: 39%   Direction: NA
Pressure: 30.37"   Gusts: NA
Location:  35.25°N, 112.19°W
Report Text: KFLG 280257Z AUTO 00000KT 10SM CLR 04/M09 A3037 RMK AO2 SLP274 T00391089 58002 TSNO
Loading
Personal Weather Stations






























Interactive Weather Map New forecast layout! Learn more

10-Day Weather Forecast

Advertisements
Track Severe Weather on mobile